Aho, North Carolina
Current Conditions -  °F | °C
As of 4:20 PM on Saturday 25 Oct 2014 (Local Time) from KTNB Reporting Station
Clear Clear  
Wind Chill: 62°   Ceiling: Unl
Heat Index: 62°   Visibility: 10mi
Dew Point: 36°   Wind: 15mph
Humidity: 37%   Direction: 300°WNW
Pressure: 30.02"   Gusts: 21mph
Location:  36.0473°N, 81.8148°W
Report Text: KTNB 252020Z AUTO 30013G18KT 10SM CLR 17/02 A3002 RMK AO2 T01670020
Loading
Personal Weather Stations






























Interactive Weather Map
Tropical Storm Tracking
New forecast layout! Learn more

10-Day Weather Forecast

Advertisements
Track Severe Weather on mobile